Main page
METAR-TAF:

METAR-TAF

Airports :

Vitoria Airport

Vitoria, Spain

latitude: 42-53N, longitude: 002-43W, elevation: 513 m

Current weather observation

The report was made 22 minutes ago, at 12:30 UTC
Wind 3 kt from the South
Temperature 34°C
Humidity 28%
Pressure 1016 hPa
Visibility 10 km or more
Few clouds at a height of 4000 ft

METAR: LEVT 061230Z 18003KT 9999 FEW040 34/13 Q1016

Time: 14:52 (12:52 UTC)

Forecast

The report was made 1 hour and 52 minutes ago, at 11:00 UTC
Forecast valid from 06 at 12 UTC to 07 at 12 UTC
Wind 9 kt from the Southeast
Visibility 10 km or more
no clouds below 1500 m and no cumulonimbus

TAF: LEVT 061100Z 0612/0712 14009KT CAVOK TX37/0615Z TN22/0706Z

Weather observations and forecasts of more than 4000 airports (METAR and TAF reports).

The available stations are represented by yellow and red dots on the map.

Hover mouse over dot to see the name of the station.

Then click to see weather observations and forecasts.

To change the map : click on the green buttons with a black cross to zoom in, on the green button with a dash to zoom out, or on the green arrows for adjacent maps.


METAR-TAF: